createdAt,value
2019-01-11T00:02:21.932Z,97455.60
2019-01-11T00:04:50.659Z,97461.70
2019-01-11T00:07:38.589Z,97454.45
2019-01-11T00:10:47.055Z,97452.05
2019-01-11T00:13:15.719Z,97452.23
2019-01-11T00:15:44.422Z,97455.39
2019-01-11T00:18:13.087Z,97462.36
2019-01-11T00:20:41.873Z,97464.97
2019-01-11T00:23:11.014Z,97462.74
2019-01-11T00:25:40.959Z,97462.72
2019-01-11T00:28:09.630Z,97462.87
2019-01-11T00:30:38.288Z,97467.60
2019-01-11T00:33:06.990Z,97462.87
2019-01-11T00:35:35.648Z,97465.09
2019-01-11T00:38:04.358Z,97462.74
2019-01-11T00:40:33.044Z,97460.55
2019-01-11T00:43:01.750Z,97454.41
2019-01-11T00:45:30.409Z,97461.17
2019-01-11T00:47:59.185Z,97466.66
2019-01-11T00:53:15.537Z,97465.16
2019-01-11T00:56:03.348Z,97468.35
2019-01-11T00:58:32.091Z,97460.61
2019-01-11T01:01:00.797Z,97463.54
2019-01-11T01:03:29.447Z,97464.61
2019-01-11T01:05:59.676Z,97459.14
2019-01-11T01:11:18.030Z,97475.56
2019-01-11T01:17:13.638Z,97483.80
2019-01-11T01:19:42.858Z,97486.97
2019-01-11T01:22:11.701Z,97489.80
2019-01-11T01:24:40.399Z,97480.63
2019-01-11T01:27:09.066Z,97472.16
2019-01-11T01:29:57.010Z,97474.34
2019-01-11T01:32:25.790Z,97469.63
2019-01-11T01:35:13.683Z,97472.77
2019-01-11T01:40:56.699Z,97477.47
2019-01-11T01:43:25.360Z,97476.84
2019-01-11T01:49:01.049Z,97474.77
2019-01-11T01:51:29.734Z,97480.44
2019-01-11T01:53:58.519Z,97484.39
2019-01-11T01:56:27.173Z,97481.89
2019-01-11T01:58:55.957Z,97483.78
2019-01-11T02:01:24.666Z,97488.47
2019-01-11T02:04:12.578Z,97476.02
2019-01-11T02:07:00.406Z,97478.05
2019-01-11T02:09:29.067Z,97480.44
2019-01-11T02:11:57.765Z,97480.91
2019-01-11T02:14:45.726Z,97477.14
2019-01-11T02:17:33.669Z,97478.72
2019-01-11T02:22:57.199Z,97475.56
2019-01-11T02:25:46.262Z,97474.94
2019-01-11T02:28:15.406Z,97475.08
2019-01-11T02:30:44.065Z,97475.72
2019-01-11T02:33:12.874Z,97466.72
2019-01-11T02:35:41.576Z,97465.45
2019-01-11T02:38:10.681Z,97465.92
2019-01-11T02:40:39.373Z,97468.63
2019-01-11T02:43:08.191Z,97467.84
2019-01-11T02:45:36.852Z,97467.53
2019-01-11T02:48:05.556Z,97468.66
2019-01-11T02:50:34.419Z,97471.00
2019-01-11T02:53:22.637Z,97470.52
2019-01-11T02:55:51.343Z,97467.69
2019-01-11T02:58:40.090Z,97465.84
2019-01-11T03:01:09.125Z,97467.73
2019-01-11T03:03:38.068Z,97469.31
2019-01-11T03:08:57.569Z,97468.66
2019-01-11T03:11:26.297Z,97467.11
2019-01-11T03:13:54.997Z,97467.27
2019-01-11T03:16:23.774Z,97476.09
2019-01-11T03:21:46.912Z,97470.41
2019-01-11T03:24:34.795Z,97462.84
2019-01-11T03:27:22.633Z,97464.13
2019-01-11T03:30:10.597Z,97457.83
2019-01-11T03:32:58.513Z,97459.70
2019-01-11T03:35:46.874Z,97463.47
2019-01-11T03:38:15.603Z,97464.59
2019-01-11T03:40:44.337Z,97461.92
2019-01-11T03:45:48.471Z,97457.62
2019-01-11T03:48:17.130Z,97460.47
2019-01-11T03:50:46.025Z,97465.50
2019-01-11T03:53:14.769Z,97461.73
2019-01-11T03:55:43.486Z,97466.30
2019-01-11T03:58:12.147Z,97467.25
2019-01-11T04:00:40.803Z,97471.19
2019-01-11T04:03:09.500Z,97472.12
2019-01-11T04:05:38.352Z,97469.45
2019-01-11T04:08:07.122Z,97469.89
2019-01-11T04:10:55.017Z,97465.05
2019-01-11T04:13:30.323Z,97471.20
2019-01-11T04:16:13.235Z,97467.27
2019-01-11T04:19:20.210Z,97465.70
2019-01-11T04:22:27.580Z,97469.46
2019-01-11T04:25:34.556Z,97462.87
2019-01-11T04:28:04.146Z,97470.25
2019-01-11T04:30:52.953Z,97469.81
2019-01-11T04:33:40.882Z,97472.33
2019-01-11T04:36:09.581Z,97470.12
2019-01-11T04:38:38.257Z,97477.52
2019-01-11T04:41:07.029Z,97480.95
2019-01-11T04:43:35.680Z,97475.63
2019-01-11T04:46:44.179Z,97476.25
2019-01-11T04:49:32.103Z,97469.02
2019-01-11T04:52:00.802Z,97472.95
2019-01-11T04:54:29.579Z,97475.80
2019-01-11T04:57:17.434Z,97476.11
2019-01-11T05:00:05.530Z,97477.98
2019-01-11T05:02:34.191Z,97473.90
2019-01-11T05:05:42.703Z,97473.11
2019-01-11T05:08:12.008Z,97469.83
2019-01-11T05:10:40.693Z,97467.29
2019-01-11T05:18:38.679Z,97459.13
2019-01-11T05:23:55.518Z,97469.83
2019-01-11T05:26:24.177Z,97465.73
2019-01-11T05:28:53.617Z,97462.27
2019-01-11T05:31:22.977Z,97464.33
2019-01-11T05:33:51.833Z,97473.77
2019-01-11T05:36:20.820Z,97469.20
2019-01-11T05:45:05.070Z,97478.64
2019-01-11T05:47:33.886Z,97475.64
2019-01-11T05:50:24.274Z,97472.49
2019-01-11T05:52:52.186Z,97470.91
2019-01-11T05:58:19.562Z,97467.30
2019-01-11T06:03:42.285Z,97467.30
2019-01-11T06:09:19.137Z,97469.50
2019-01-11T06:12:06.939Z,97472.66
2019-01-11T06:14:54.942Z,97478.02
2019-01-11T06:17:23.674Z,97477.52
2019-01-11T06:19:52.378Z,97478.15
2019-01-11T06:22:21.132Z,97476.91
2019-01-11T06:24:49.917Z,97471.23
2019-01-11T06:30:53.528Z,97480.52
2019-01-11T06:33:41.486Z,97479.11
2019-01-11T06:36:10.263Z,97479.73
2019-01-11T06:38:38.931Z,97485.72
2019-01-11T06:41:07.639Z,97478.46
2019-01-11T06:43:36.524Z,97482.58
2019-01-11T06:46:05.196Z,97481.16
2019-01-11T06:51:09.660Z,97483.82
2019-01-11T06:53:57.538Z,97475.66
2019-01-11T06:56:26.261Z,97477.86
2019-01-11T06:58:54.922Z,97480.05
2019-01-11T07:01:23.641Z,97478.31
2019-01-11T07:03:52.365Z,97478.97
2019-01-11T07:06:40.189Z,97477.23
2019-01-11T07:09:08.959Z,97473.59
2019-01-11T07:11:37.656Z,97467.62
2019-01-11T07:14:06.314Z,97469.34
2019-01-11T07:16:54.204Z,97470.92
2019-01-11T07:19:22.854Z,97467.78
2019-01-11T07:21:51.609Z,97461.62
2019-01-11T07:24:20.276Z,97459.89
2019-01-11T07:27:08.264Z,97467.30
2019-01-11T07:29:56.098Z,97462.11
2019-01-11T07:32:24.765Z,97469.19
2019-01-11T07:35:12.672Z,97473.90
2019-01-11T07:37:41.337Z,97470.28
2019-01-11T07:40:49.840Z,97476.25
2019-01-11T07:43:37.794Z,97469.66
2019-01-11T07:46:25.585Z,97478.31
2019-01-11T07:49:13.454Z,97479.09
2019-01-11T07:52:01.366Z,97477.80
2019-01-11T07:54:49.287Z,97482.22
2019-01-11T07:57:17.988Z,97476.38
2019-01-11T07:59:46.662Z,97479.70
2019-01-11T08:02:15.367Z,97482.05
2019-01-11T08:04:44.070Z,97479.83
2019-01-11T08:07:12.726Z,97474.34
2019-01-11T08:09:41.417Z,97480.94
2019-01-11T08:12:10.083Z,97477.45
2019-01-11T08:14:38.804Z,97475.69
2019-01-11T08:17:26.653Z,97479.02
2019-01-11T08:20:14.549Z,97481.56
2019-01-11T08:25:32.534Z,97474.28
2019-01-11T08:28:01.202Z,97480.70
2019-01-11T08:30:29.910Z,97482.66
2019-01-11T08:32:58.574Z,97484.52
2019-01-11T08:35:27.235Z,97484.94
2019-01-11T08:37:55.950Z,97485.20
2019-01-11T08:40:43.789Z,97480.45
2019-01-11T08:43:31.826Z,97474.84
2019-01-11T08:46:00.592Z,97483.17
2019-01-11T08:48:29.287Z,97486.03
2019-01-11T08:51:02.575Z,97485.70
2019-01-11T08:53:28.433Z,97484.59
2019-01-11T08:56:16.406Z,97488.06
2019-01-11T08:59:04.207Z,97494.41
2019-01-11T09:01:52.150Z,97485.72
2019-01-11T09:04:40.084Z,97483.92
2019-01-11T09:07:27.869Z,97490.60
2019-01-11T09:10:22.397Z,97490.34
2019-01-11T09:13:05.502Z,97487.13
2019-01-11T09:21:01.430Z,97494.94
2019-01-11T09:23:49.326Z,97495.47
2019-01-11T09:26:37.322Z,97491.52
2019-01-11T09:32:04.174Z,97483.59
2019-01-11T09:34:52.148Z,97481.53
2019-01-11T09:37:20.812Z,97478.90
2019-01-11T09:40:08.697Z,97480.16
2019-01-11T09:42:56.537Z,97478.13
2019-01-11T09:48:18.226Z,97476.05
2019-01-11T09:51:06.125Z,97475.71
2019-01-11T09:53:54.017Z,97471.47
2019-01-11T09:56:22.736Z,97472.52
2019-01-11T09:58:51.405Z,97466.70
2019-01-11T10:01:39.392Z,97476.79
2019-01-11T10:07:35.642Z,97483.59
2019-01-11T10:10:44.079Z,97475.03
2019-01-11T10:13:12.792Z,97478.81
2019-01-11T10:15:41.506Z,97473.13
2019-01-11T10:18:10.175Z,97478.91
2019-01-11T10:20:38.883Z,97473.34
2019-01-11T10:23:26.863Z,97481.34
2019-01-11T10:25:55.526Z,97479.83
2019-01-11T10:28:43.540Z,97480.56
2019-01-11T10:31:12.301Z,97478.14
2019-01-11T10:33:41.034Z,97478.45
2019-01-11T10:36:09.699Z,97478.98
2019-01-11T10:38:38.474Z,97480.97
2019-01-11T10:41:07.188Z,97479.77
2019-01-11T10:46:49.011Z,97472.64
2019-01-11T10:49:14.759Z,97468.33
2019-01-11T10:51:43.479Z,97465.22
2019-01-11T10:57:20.654Z,97459.53
2019-01-11T11:00:08.491Z,97454.73
2019-01-11T11:02:56.424Z,97459.06
2019-01-11T11:05:25.291Z,97457.50
2019-01-11T11:07:53.958Z,97457.69
2019-01-11T11:10:22.723Z,97454.52
2019-01-11T11:12:51.374Z,97448.21
2019-01-11T11:15:59.868Z,97451.78
2019-01-11T11:18:47.785Z,97447.78
2019-01-11T11:21:35.692Z,97447.33
2019-01-11T11:24:04.510Z,97434.95
2019-01-11T11:26:33.179Z,97439.00
2019-01-11T11:29:21.139Z,97434.59
2019-01-11T11:32:09.110Z,97433.67
2019-01-11T11:40:46.591Z,97427.61
2019-01-11T11:48:56.298Z,97413.58
2019-01-11T11:51:24.964Z,97416.14
2019-01-11T11:54:12.927Z,97413.16
2019-01-11T11:56:41.604Z,97414.14
2019-01-11T11:59:29.568Z,97408.49
2019-01-11T12:02:19.376Z,97404.44
2019-01-11T12:05:07.178Z,97401.73
2019-01-11T12:07:35.899Z,97399.41
2019-01-11T12:10:44.344Z,97397.24
2019-01-11T12:13:34.648Z,97388.30
2019-01-11T12:16:02.809Z,97379.52
2019-01-11T12:18:50.708Z,97381.53
2019-01-11T12:21:38.570Z,97369.13
2019-01-11T12:24:07.283Z,97373.79
2019-01-11T12:26:55.128Z,97365.31
2019-01-11T12:29:42.958Z,97368.81
2019-01-11T12:32:11.654Z,97362.39
2019-01-11T12:34:40.316Z,97369.00
2019-01-11T12:37:09.103Z,97361.44
2019-01-11T12:39:37.818Z,97360.74
2019-01-11T12:42:06.597Z,97364.73
2019-01-11T12:44:35.250Z,97355.48
2019-01-11T12:47:04.038Z,97355.17
2019-01-11T12:49:51.885Z,97352.55
2019-01-11T12:52:20.664Z,97346.34
2019-01-11T12:55:08.681Z,97341.34
2019-01-11T12:57:37.299Z,97345.41
2019-01-11T13:00:25.276Z,97335.91
2019-01-11T13:02:53.943Z,97336.96
2019-01-11T13:08:17.436Z,97338.34
2019-01-11T13:10:46.145Z,97330.71
2019-01-11T13:13:14.800Z,97330.55
2019-01-11T13:15:43.493Z,97319.97
2019-01-11T13:18:12.282Z,97328.09
2019-01-11T13:20:40.948Z,97332.83
2019-01-11T13:23:09.670Z,97338.42
2019-01-11T13:25:38.335Z,97326.47
2019-01-11T13:28:07.153Z,97331.31
2019-01-11T13:30:55.116Z,97334.66
2019-01-11T13:33:23.879Z,97348.37
2019-01-11T13:35:52.623Z,97332.07
2019-01-11T13:38:21.496Z,97324.04
2019-01-11T13:41:09.467Z,97332.07
2019-01-11T13:43:57.427Z,97338.18
2019-01-11T13:46:45.492Z,97343.83
2019-01-11T13:49:33.500Z,97343.91
2019-01-11T13:52:07.169Z,97332.87
2019-01-11T13:54:32.875Z,97329.66
2019-01-11T13:57:21.159Z,97317.69
2019-01-11T14:00:09.202Z,97320.97
2019-01-11T14:02:37.879Z,97321.89
2019-01-11T14:05:46.585Z,97320.97
2019-01-11T14:08:15.290Z,97325.52
2019-01-11T14:10:44.005Z,97327.13
2019-01-11T14:13:12.733Z,97322.33
2019-01-11T14:15:42.996Z,97322.28
2019-01-11T14:18:11.836Z,97313.95
2019-01-11T14:20:40.606Z,97328.04
2019-01-11T14:23:28.590Z,97325.16
2019-01-11T14:25:57.328Z,97331.91
2019-01-11T14:28:45.227Z,97328.34
2019-01-11T14:31:33.070Z,97319.25
2019-01-11T14:34:20.970Z,97327.77
2019-01-11T14:37:08.942Z,97322.33
2019-01-11T14:39:56.894Z,97321.22
2019-01-11T14:42:25.788Z,97320.30
2019-01-11T14:45:13.708Z,97317.48
2019-01-11T14:47:42.425Z,97313.70
2019-01-11T14:50:30.406Z,97313.99
2019-01-11T14:53:18.303Z,97314.11
2019-01-11T14:55:46.974Z,97315.17
2019-01-11T14:58:34.876Z,97314.20
2019-01-11T15:01:22.808Z,97328.67
2019-01-11T15:03:51.599Z,97322.38
2019-01-11T15:06:20.286Z,97323.82
2019-01-11T15:08:48.978Z,97323.02
2019-01-11T15:11:36.927Z,97328.06
2019-01-11T15:14:05.585Z,97314.50
2019-01-11T15:16:53.668Z,97324.78
2019-01-11T15:19:41.569Z,97328.25
2019-01-11T15:22:29.566Z,97325.08
2019-01-11T15:25:17.413Z,97334.86
2019-01-11T15:27:46.188Z,97332.95
2019-01-11T15:30:36.020Z,97324.47
2019-01-11T15:35:54.042Z,97326.03
2019-01-11T15:41:12.016Z,97324.47
2019-01-11T15:43:59.889Z,97318.78
2019-01-11T15:46:47.985Z,97311.67
2019-01-11T15:49:16.587Z,97313.59
2019-01-11T15:51:45.320Z,97309.66
2019-01-11T15:54:13.990Z,97321.27
2019-01-11T15:56:42.662Z,97312.47
2019-01-11T15:59:11.224Z,97316.26
2019-01-11T16:01:39.896Z,97311.67
2019-01-11T16:04:09.130Z,97311.22
2019-01-11T16:06:39.021Z,97312.78
2019-01-11T16:10:05.566Z,97311.33
2019-01-11T16:12:34.814Z,97309.91
2019-01-11T16:15:43.255Z,97309.77
2019-01-11T16:18:51.749Z,97316.52
2019-01-11T16:21:39.956Z,97308.91
2019-01-11T16:24:08.934Z,97305.83
2019-01-11T16:26:59.048Z,97312.44
2019-01-11T16:29:30.258Z,97314.15
2019-01-11T16:35:45.932Z,97307.00
2019-01-11T16:38:14.648Z,97303.66
2019-01-11T16:40:43.528Z,97305.08
2019-01-11T16:43:12.304Z,97311.13
2019-01-11T16:45:41.022Z,97312.08
2019-01-11T16:48:49.516Z,97303.72
2019-01-11T16:51:18.208Z,97305.59
2019-01-11T16:53:54.766Z,97303.72
2019-01-11T16:56:24.601Z,97309.25
2019-01-11T16:59:12.575Z,97312.08
2019-01-11T17:02:00.560Z,97307.00
2019-01-11T17:04:29.267Z,97313.14
2019-01-11T17:06:57.922Z,97315.02
2019-01-11T17:09:45.914Z,97304.63
2019-01-11T17:12:14.653Z,97309.52
2019-01-11T17:14:43.336Z,97301.34
2019-01-11T17:17:31.344Z,97308.76
2019-01-11T17:20:00.033Z,97303.25
2019-01-11T17:22:29.164Z,97303.25
2019-01-11T17:24:57.896Z,97308.55
2019-01-11T17:27:26.556Z,97304.13
2019-01-11T17:29:55.299Z,97304.77
2019-01-11T17:32:23.968Z,97309.52
2019-01-11T17:34:52.747Z,97305.39
2019-01-11T17:37:40.663Z,97307.59
2019-01-11T17:40:49.151Z,97304.44
2019-01-11T17:43:17.850Z,97307.30
2019-01-11T17:45:46.546Z,97301.91
2019-01-11T17:48:34.515Z,97306.19
2019-01-11T17:51:03.185Z,97302.85
2019-01-11T17:53:31.899Z,97303.81
2019-01-11T17:56:19.733Z,97307.86
2019-01-11T17:59:07.621Z,97303.46
2019-01-11T18:01:55.503Z,97298.38
2019-01-11T18:04:24.264Z,97302.20
2019-01-11T18:06:52.932Z,97303.46
2019-01-11T18:09:21.643Z,97307.09
2019-01-11T18:11:50.297Z,97300.74
2019-01-11T18:14:19.115Z,97313.52
2019-01-11T18:16:47.777Z,97313.66
2019-01-11T18:19:16.484Z,97318.70
2019-01-11T18:21:45.181Z,97313.00
2019-01-11T18:24:13.870Z,97314.52
2019-01-11T18:26:42.532Z,97319.87
2019-01-11T18:29:11.235Z,97307.70
2019-01-11T18:31:39.937Z,97311.19
2019-01-11T18:34:27.843Z,97316.88
2019-01-11T18:37:15.767Z,97311.08
2019-01-11T18:39:44.467Z,97306.08
2019-01-11T18:42:13.131Z,97309.12
2019-01-11T18:44:41.840Z,97306.48
2019-01-11T18:47:10.512Z,97302.85
2019-01-11T18:49:39.183Z,97309.16
2019-01-11T18:52:07.880Z,97305.22
2019-01-11T18:54:36.548Z,97308.81
2019-01-11T18:57:05.361Z,97300.33
2019-01-11T18:59:53.311Z,97304.58
2019-01-11T19:02:21.977Z,97308.81
2019-01-11T19:04:50.640Z,97311.48
2019-01-11T19:07:19.416Z,97307.86
2019-01-11T19:09:48.098Z,97313.52
2019-01-11T19:12:16.798Z,97317.19
2019-01-11T19:14:45.465Z,97304.22
2019-01-11T19:17:14.167Z,97311.33
2019-01-11T19:19:42.866Z,97310.78
2019-01-11T19:22:11.565Z,97311.63
2019-01-11T19:24:40.230Z,97309.05
2019-01-11T19:27:08.942Z,97303.19
2019-01-11T19:29:56.897Z,97299.42
2019-01-11T19:32:44.792Z,97306.16
2019-01-11T19:35:13.458Z,97306.86
2019-01-11T19:37:42.181Z,97313.84
2019-01-11T19:40:50.618Z,97312.27
2019-01-11T19:43:19.335Z,97318.97
2019-01-11T19:45:47.975Z,97323.88
2019-01-11T19:48:16.679Z,97313.84
2019-01-11T19:50:45.346Z,97323.11
2019-01-11T19:53:14.060Z,97324.68
2019-01-11T19:55:42.706Z,97327.06
2019-01-11T19:58:11.416Z,97323.53
2019-01-11T20:00:40.096Z,97329.23
2019-01-11T20:03:08.917Z,97320.80
2019-01-11T20:05:37.557Z,97332.55
2019-01-11T20:08:06.222Z,97328.91
2019-01-11T20:10:34.906Z,97324.58
2019-01-11T20:15:58.169Z,97329.73
2019-01-11T20:18:26.868Z,97324.89
2019-01-11T20:20:55.580Z,97316.31
2019-01-11T20:23:24.236Z,97316.80
2019-01-11T20:26:32.778Z,97321.36
2019-01-11T20:29:01.427Z,97328.56
2019-01-11T20:31:30.150Z,97328.56
2019-01-11T20:33:58.823Z,97322.91
2019-01-11T20:37:07.294Z,97321.34
2019-01-11T20:39:36.003Z,97322.62
2019-01-11T20:45:52.641Z,97330.19
2019-01-11T20:48:21.304Z,97329.75
2019-01-11T20:50:50.005Z,97327.65
2019-01-11T20:53:18.674Z,97327.65
2019-01-11T20:55:47.395Z,97329.53
2019-01-11T20:58:16.141Z,97327.67
2019-01-11T21:00:44.880Z,97328.32
2019-01-11T21:03:13.583Z,97318.99
2019-01-11T21:05:42.293Z,97320.40
2019-01-11T21:08:11.004Z,97325.42
2019-01-11T21:10:39.669Z,97327.51
2019-01-11T21:13:08.323Z,97319.88
2019-01-11T21:15:37.038Z,97319.20
2019-01-11T21:18:05.809Z,97331.53
2019-01-11T21:20:34.517Z,97321.29
2019-01-11T21:23:03.188Z,97319.58
2019-01-11T21:25:31.984Z,97324.38
2019-01-11T21:28:00.630Z,97325.68
2019-01-11T21:31:09.108Z,97325.84
2019-01-11T21:33:37.764Z,97325.63
2019-01-11T21:36:06.540Z,97328.16
2019-01-11T21:38:54.330Z,97326.89
2019-01-11T21:41:23.048Z,97328.59
2019-01-11T21:43:51.768Z,97332.58
2019-01-11T21:46:20.434Z,97327.94
2019-01-11T21:48:49.138Z,97326.73
2019-01-11T21:51:17.810Z,97319.55
2019-01-11T21:53:46.519Z,97319.77
2019-01-11T21:56:15.187Z,97323.55
2019-01-11T21:59:03.133Z,97322.89
2019-01-11T22:01:31.802Z,97319.44
2019-01-11T22:04:00.511Z,97320.26
2019-01-11T22:06:29.263Z,97318.50
2019-01-11T22:08:57.976Z,97316.42
2019-01-11T22:11:26.691Z,97317.08
2019-01-11T22:13:55.354Z,97326.47
2019-01-11T22:16:24.058Z,97328.37
2019-01-11T22:18:52.709Z,97325.54
2019-01-11T22:21:21.404Z,97321.61
2019-01-11T22:23:50.155Z,97321.62
2019-01-11T22:26:18.856Z,97322.27
2019-01-11T22:28:47.529Z,97324.60
2019-01-11T22:31:16.250Z,97319.25
2019-01-11T22:33:44.923Z,97320.81
2019-01-11T22:36:13.649Z,97319.74
2019-01-11T22:38:42.318Z,97326.80
2019-01-11T22:41:11.116Z,97319.22
2019-01-11T22:43:39.956Z,97322.91
2019-01-11T22:46:08.669Z,97322.88
2019-01-11T22:48:56.692Z,97322.05
2019-01-11T22:51:25.449Z,97323.17
2019-01-11T22:53:54.222Z,97319.22
2019-01-11T22:56:22.941Z,97317.82
2019-01-11T22:58:51.736Z,97319.25
2019-01-11T23:01:58.889Z,97325.86
2019-01-11T23:04:27.563Z,97332.31
2019-01-11T23:07:36.125Z,97331.11
2019-01-11T23:10:44.615Z,97332.97
2019-01-11T23:13:13.289Z,97329.94
2019-01-11T23:15:41.968Z,97331.80
2019-01-11T23:21:04.595Z,97337.73
2019-01-11T23:23:52.579Z,97340.42
2019-01-11T23:26:21.353Z,97332.56
2019-01-11T23:29:09.198Z,97338.42
2019-01-11T23:37:07.082Z,97344.73
2019-01-11T23:39:55.064Z,97333.50
2019-01-11T23:42:23.838Z,97327.84
2019-01-11T23:44:52.569Z,97332.41
2019-01-11T23:47:21.286Z,97332.10
2019-01-11T23:50:09.233Z,97337.08
2019-01-11T23:52:57.193Z,97332.94
2019-01-11T23:55:25.901Z,97334.45
2019-01-11T23:58:13.869Z,97341.31
